sensor_id;sensor_type;location;lat;lon;timestamp;pressure;altitude;pressure_sealevel;temperature;humidity
60061;BME280;45933;51.336;12.612;2023-05-07T00:01:37;100304.41;;;12.91;58.22
60061;BME280;45933;51.336;12.612;2023-05-07T00:04:03;100303.56;;;12.91;58.17
60061;BME280;45933;51.336;12.612;2023-05-07T00:06:29;100306.19;;;12.91;58.40
60061;BME280;45933;51.336;12.612;2023-05-07T00:08:55;100307.03;;;12.91;58.54
60061;BME280;45933;51.336;12.612;2023-05-07T00:11:21;100307.03;;;12.91;58.32
60061;BME280;45933;51.336;12.612;2023-05-07T00:13:47;100302.69;;;12.90;58.14
60061;BME280;45933;51.336;12.612;2023-05-07T00:16:12;100304.50;;;12.87;58.08
60061;BME280;45933;51.336;12.612;2023-05-07T00:18:38;100300.13;;;12.87;58.11
60061;BME280;45933;51.336;12.612;2023-05-07T00:21:03;100303.59;;;12.86;57.96
60061;BME280;45933;51.336;12.612;2023-05-07T00:23:28;100297.53;;;12.84;57.93
60061;BME280;45933;51.336;12.612;2023-05-07T00:25:53;100307.13;;;12.85;58.14
60061;BME280;45933;51.336;12.612;2023-05-07T00:28:19;100304.53;;;12.80;57.90
60061;BME280;45933;51.336;12.612;2023-05-07T00:30:44;100302.78;;;12.82;58.00
60061;BME280;45933;51.336;12.612;2023-05-07T00:33:09;100302.78;;;12.81;58.32
60061;BME280;45933;51.336;12.612;2023-05-07T00:35:34;100308.91;;;12.81;58.15
60061;BME280;45933;51.336;12.612;2023-05-07T00:38:00;100308.91;;;12.81;57.97
60061;BME280;45933;51.336;12.612;2023-05-07T00:40:25;100301.94;;;12.79;58.41
60061;BME280;45933;51.336;12.612;2023-05-07T00:42:50;100315.91;;;12.78;58.49
60061;BME280;45933;51.336;12.612;2023-05-07T00:45:25;100313.34;;;12.76;58.38
60061;BME280;45933;51.336;12.612;2023-05-07T00:47:53;100312.47;;;12.74;58.44
60061;BME280;45933;51.336;12.612;2023-05-07T00:50:18;100309.84;;;12.74;58.68
60061;BME280;45933;51.336;12.612;2023-05-07T00:52:44;100307.22;;;12.74;58.89
60061;BME280;45933;51.336;12.612;2023-05-07T00:55:09;100309.91;;;12.71;58.84
60061;BME280;45933;51.336;12.612;2023-05-07T00:57:39;100306.38;;;12.74;58.65
60061;BME280;45933;51.336;12.612;2023-05-07T01:00:06;100305.56;;;12.67;58.87
60061;BME280;45933;51.336;12.612;2023-05-07T01:02:33;100308.16;;;12.69;58.99
60061;BME280;45933;51.336;12.612;2023-05-07T01:05:00;100308.16;;;12.69;59.18
60061;BME280;45933;51.336;12.612;2023-05-07T01:07:26;100309.94;;;12.67;59.09
60061;BME280;45933;51.336;12.612;2023-05-07T01:09:52;100316.06;;;12.66;58.90
60061;BME280;45933;51.336;12.612;2023-05-07T01:12:17;100315.16;;;12.65;59.00
60061;BME280;45933;51.336;12.612;2023-05-07T01:14:43;100312.56;;;12.65;58.80
60061;BME280;45933;51.336;12.612;2023-05-07T01:17:08;100317.78;;;12.65;59.03
60061;BME280;45933;51.336;12.612;2023-05-07T01:19:34;100315.19;;;12.64;58.96
60061;BME280;45933;51.336;12.612;2023-05-07T01:22:07;100326.50;;;12.67;59.28
60061;BME280;45933;51.336;12.612;2023-05-07T01:24:35;100313.44;;;12.64;59.21
60061;BME280;45933;51.336;12.612;2023-05-07T01:27:01;100320.44;;;12.62;59.17
60061;BME280;45933;51.336;12.612;2023-05-07T01:29:27;100323.94;;;12.63;59.20
60061;BME280;45933;51.336;12.612;2023-05-07T01:31:52;100317.84;;;12.62;59.46
60061;BME280;45933;51.336;12.612;2023-05-07T01:34:19;100311.75;;;12.62;59.69
60061;BME280;45933;51.336;12.612;2023-05-07T01:36:46;100312.63;;;12.59;59.53
60061;BME280;45933;51.336;12.612;2023-05-07T01:39:13;100305.66;;;12.58;59.66
60061;BME280;45933;51.336;12.612;2023-05-07T01:41:39;100310.03;;;12.57;59.73
60061;BME280;45933;51.336;12.612;2023-05-07T01:44:05;100315.25;;;12.59;59.76
60061;BME280;45933;51.336;12.612;2023-05-07T01:46:32;100315.28;;;12.56;59.81
60061;BME280;45933;51.336;12.612;2023-05-07T01:48:57;100316.16;;;12.55;59.71
60061;BME280;45933;51.336;12.612;2023-05-07T01:51:23;100324.91;;;12.52;59.41
60061;BME280;45933;51.336;12.612;2023-05-07T01:53:49;100321.41;;;12.52;59.83
60061;BME280;45933;51.336;12.612;2023-05-07T01:56:17;100330.16;;;12.51;59.80
60061;BME280;45933;51.336;12.612;2023-05-07T01:58:43;100329.28;;;12.50;59.55
60061;BME280;45933;51.336;12.612;2023-05-07T02:01:09;100325.81;;;12.48;60.03
60061;BME280;45933;51.336;12.612;2023-05-07T02:03:34;100333.66;;;12.50;59.97
60061;BME280;45933;51.336;12.612;2023-05-07T02:05:59;100335.38;;;12.49;59.59
60061;BME280;45933;51.336;12.612;2023-05-07T02:08:24;100328.44;;;12.50;59.73
60061;BME280;45933;51.336;12.612;2023-05-07T02:10:50;100318.81;;;12.52;59.78
60061;BME280;45933;51.336;12.612;2023-05-07T02:13:16;100314.47;;;12.49;59.58
60061;BME280;45933;51.336;12.612;2023-05-07T02:15:41;100314.47;;;12.51;59.56
60061;BME280;45933;51.336;12.612;2023-05-07T02:18:09;100319.66;;;12.54;59.82
60061;BME280;45933;51.336;12.612;2023-05-07T02:20:35;100318.81;;;12.52;59.78
60061;BME280;45933;51.336;12.612;2023-05-07T02:23:00;100324.06;;;12.50;59.37
60061;BME280;45933;51.336;12.612;2023-05-07T02:25:25;100323.22;;;12.47;59.68
60061;BME280;45933;51.336;12.612;2023-05-07T02:27:51;100327.56;;;12.46;59.12
60061;BME280;45933;51.336;12.612;2023-05-07T02:30:16;100320.63;;;12.44;59.76
60061;BME280;45933;51.336;12.612;2023-05-07T02:32:41;100322.41;;;12.40;59.82
60061;BME280;45933;51.336;12.612;2023-05-07T02:35:07;100325.91;;;12.39;59.80
60061;BME280;45933;51.336;12.612;2023-05-07T02:37:32;100327.69;;;12.34;59.71
60061;BME280;45933;51.336;12.612;2023-05-07T02:39:58;100323.31;;;12.36;59.25
60061;BME280;45933;51.336;12.612;2023-05-07T02:42:23;100325.94;;;12.33;59.83
60061;BME280;45933;51.336;12.612;2023-05-07T02:44:48;100321.63;;;12.30;60.06
60061;BME280;45933;51.336;12.612;2023-05-07T02:47:14;100322.50;;;12.28;59.90
60061;BME280;45933;51.336;12.612;2023-05-07T02:49:40;100320.78;;;12.25;59.83
60061;BME280;45933;51.336;12.612;2023-05-07T02:52:05;100327.75;;;12.26;59.83
60061;BME280;45933;51.336;12.612;2023-05-07T02:54:31;100327.78;;;12.25;60.05
60061;BME280;45933;51.336;12.612;2023-05-07T02:56:56;100331.28;;;12.24;60.24
60061;BME280;45933;51.336;12.612;2023-05-07T02:59:23;100334.75;;;12.23;60.20
60061;BME280;45933;51.336;12.612;2023-05-07T03:01:48;100328.66;;;12.22;60.24
60061;BME280;45933;51.336;12.612;2023-05-07T03:04:13;100333.88;;;12.24;60.10
60061;BME280;45933;51.336;12.612;2023-05-07T03:06:38;100321.66;;;12.23;59.85
60061;BME280;45933;51.336;12.612;2023-05-07T03:09:04;100328.63;;;12.25;59.54
60061;BME280;45933;51.336;12.612;2023-05-07T03:11:29;100324.28;;;12.26;60.25
60061;BME280;45933;51.336;12.612;2023-05-07T03:13:55;100326.91;;;12.23;60.12
60061;BME280;45933;51.336;12.612;2023-05-07T03:16:20;100326.03;;;12.22;60.37
60061;BME280;45933;51.336;12.612;2023-05-07T03:18:46;100326.06;;;12.21;59.73
60061;BME280;45933;51.336;12.612;2023-05-07T03:21:12;100328.66;;;12.22;60.24
60061;BME280;45933;51.336;12.612;2023-05-07T03:23:37;100327.78;;;12.22;60.28
60061;BME280;45933;51.336;12.612;2023-05-07T03:26:02;100324.28;;;12.24;60.26
60061;BME280;45933;51.336;12.612;2023-05-07T03:28:28;100324.28;;;12.23;60.35
60061;BME280;45933;51.336;12.612;2023-05-07T03:30:53;100319.94;;;12.23;60.08
60061;BME280;45933;51.336;12.612;2023-05-07T03:33:18;100324.31;;;12.20;60.03
60061;BME280;45933;51.336;12.612;2023-05-07T03:35:43;100325.16;;;12.22;59.86
60061;BME280;45933;51.336;12.612;2023-05-07T03:38:09;100332.16;;;12.21;60.25
60061;BME280;45933;51.336;12.612;2023-05-07T03:40:34;100330.41;;;12.23;60.03
60061;BME280;45933;51.336;12.612;2023-05-07T03:43:00;100332.13;;;12.23;60.01
60061;BME280;45933;51.336;12.612;2023-05-07T03:45:25;100332.13;;;12.23;60.13
60061;BME280;45933;51.336;12.612;2023-05-07T03:47:51;100339.97;;;12.24;60.19
60061;BME280;45933;51.336;12.612;2023-05-07T03:50:16;100348.69;;;12.25;60.41
60061;BME280;45933;51.336;12.612;2023-05-07T03:52:41;100344.31;;;12.25;60.05
60061;BME280;45933;51.336;12.612;2023-05-07T03:55:07;100349.53;;;12.25;60.02
60061;BME280;45933;51.336;12.612;2023-05-07T03:57:32;100356.53;;;12.25;59.84
60061;BME280;45933;51.336;12.612;2023-05-07T03:59:58;100361.72;;;12.28;60.11
60061;BME280;45933;51.336;12.612;2023-05-07T04:02:23;100357.34;;;12.28;60.18
60061;BME280;45933;51.336;12.612;2023-05-07T04:04:48;100355.63;;;12.29;60.57
60061;BME280;45933;51.336;12.612;2023-05-07T04:07:14;100360.84;;;12.29;60.13
60061;BME280;45933;51.336;12.612;2023-05-07T04:09:40;100363.44;;;12.30;60.37
60061;BME280;45933;51.336;12.612;2023-05-07T04:12:05;100361.66;;;12.33;60.06
60061;BME280;45933;51.336;12.612;2023-05-07T04:14:30;100358.16;;;12.34;59.94
60061;BME280;45933;51.336;12.612;2023-05-07T04:16:58;100366.00;;;12.34;60.14
60061;BME280;45933;51.336;12.612;2023-05-07T04:19:26;100366.03;;;12.32;60.23
60061;BME280;45933;51.336;12.612;2023-05-07T04:21:51;100366.03;;;12.35;60.18
60061;BME280;45933;51.336;12.612;2023-05-07T04:24:16;100367.78;;;12.35;60.27
60061;BME280;45933;51.336;12.612;2023-05-07T04:26:42;100367.78;;;12.35;60.24
60061;BME280;45933;51.336;12.612;2023-05-07T04:29:07;100368.63;;;12.34;59.84
60061;BME280;45933;51.336;12.612;2023-05-07T04:31:33;100369.53;;;12.28;60.08
60061;BME280;45933;51.336;12.612;2023-05-07T04:33:58;100366.06;;;12.27;60.12
60061;BME280;45933;51.336;12.612;2023-05-07T04:36:23;100370.41;;;12.28;59.80
60061;BME280;45933;51.336;12.612;2023-05-07T04:38:52;100367.91;;;12.19;60.21
60061;BME280;45933;51.336;12.612;2023-05-07T04:41:18;100362.66;;;12.19;59.97
60061;BME280;45933;51.336;12.612;2023-05-07T04:43:43;100374.00;;;12.17;60.13
60061;BME280;45933;51.336;12.612;2023-05-07T04:46:08;100374.00;;;12.15;59.86
60061;BME280;45933;51.336;12.612;2023-05-07T04:48:33;100375.75;;;12.15;60.47
60061;BME280;45933;51.336;12.612;2023-05-07T04:50:58;100381.88;;;12.14;59.94
60061;BME280;45933;51.336;12.612;2023-05-07T04:53:24;100390.59;;;12.10;60.35
60061;BME280;45933;51.336;12.612;2023-05-07T04:55:55;100387.97;;;12.13;60.31
60061;BME280;45933;51.336;12.612;2023-05-07T04:58:21;100389.75;;;12.09;60.33
60061;BME280;45933;51.336;12.612;2023-05-07T05:00:47;100389.78;;;12.01;60.42
60061;BME280;45933;51.336;12.612;2023-05-07T05:03:12;100394.97;;;12.06;60.27
60061;BME280;45933;51.336;12.612;2023-05-07T05:05:37;100397.59;;;12.06;60.24
60061;BME280;45933;51.336;12.612;2023-05-07T05:08:03;100408.91;;;12.07;60.35
60061;BME280;45933;51.336;12.612;2023-05-07T05:10:28;100406.28;;;12.10;60.31
60061;BME280;45933;51.336;12.612;2023-05-07T05:12:53;100412.38;;;12.10;60.18
60061;BME280;45933;51.336;12.612;2023-05-07T05:15:19;100419.34;;;12.10;60.36
60061;BME280;45933;51.336;12.612;2023-05-07T05:17:44;100420.19;;;12.12;60.59
60061;BME280;45933;51.336;12.612;2023-05-07T05:20:10;100419.34;;;12.10;60.48
60061;BME280;45933;51.336;12.612;2023-05-07T05:22:36;100418.44;;;12.12;60.33
60061;BME280;45933;51.336;12.612;2023-05-07T05:25:02;100419.31;;;12.14;60.60
60061;BME280;45933;51.336;12.612;2023-05-07T05:27:28;100412.34;;;12.12;60.50
60061;BME280;45933;51.336;12.612;2023-05-07T05:29:54;100413.22;;;12.12;61.11
60061;BME280;45933;51.336;12.612;2023-05-07T05:32:19;100412.38;;;12.13;60.79
60061;BME280;45933;51.336;12.612;2023-05-07T05:34:44;100414.97;;;12.13;60.87
60061;BME280;45933;51.336;12.612;2023-05-07T05:37:10;100416.66;;;12.17;60.76
60061;BME280;45933;51.336;12.612;2023-05-07T05:39:35;100404.47;;;12.19;60.63
60061;BME280;45933;51.336;12.612;2023-05-07T05:42:01;100411.47;;;12.16;60.78
60061;BME280;45933;51.336;12.612;2023-05-07T05:44:26;100412.31;;;12.16;60.60
60061;BME280;45933;51.336;12.612;2023-05-07T05:46:51;100416.69;;;12.19;60.52
60061;BME280;45933;51.336;12.612;2023-05-07T05:49:17;100414.91;;;12.21;60.53
60061;BME280;45933;51.336;12.612;2023-05-07T05:51:42;100415.81;;;12.20;60.84
60061;BME280;45933;51.336;12.612;2023-05-07T05:54:08;100423.66;;;12.18;60.65
60061;BME280;45933;51.336;12.612;2023-05-07T05:56:33;100424.50;;;12.17;60.65
60061;BME280;45933;51.336;12.612;2023-05-07T05:59:07;100428.88;;;12.20;60.98
60061;BME280;45933;51.336;12.612;2023-05-07T06:01:33;100433.22;;;12.21;60.66
60061;BME280;45933;51.336;12.612;2023-05-07T06:03:58;100428.81;;;12.26;60.71
60061;BME280;45933;51.336;12.612;2023-05-07T06:06:23;100434.00;;;12.32;60.32
60061;BME280;45933;51.336;12.612;2023-05-07T06:08:49;100434.88;;;12.34;60.18
60061;BME280;45933;51.336;12.612;2023-05-07T06:11:14;100431.34;;;12.38;60.48
60061;BME280;45933;51.336;12.612;2023-05-07T06:13:39;100438.25;;;12.44;59.76
60061;BME280;45933;51.336;12.612;2023-05-07T06:16:05;100438.22;;;12.48;59.60
60061;BME280;45933;51.336;12.612;2023-05-07T06:18:30;100432.13;;;12.49;59.50
60061;BME280;45933;51.336;12.612;2023-05-07T06:20:56;100435.56;;;12.56;59.23
60061;BME280;45933;51.336;12.612;2023-05-07T06:23:21;100434.63;;;12.63;59.15
60061;BME280;45933;51.336;12.612;2023-05-07T06:25:50;100429.34;;;12.71;59.48
60061;BME280;45933;51.336;12.612;2023-05-07T06:28:16;100430.22;;;12.71;59.14
60061;BME280;45933;51.336;12.612;2023-05-07T06:30:41;100429.28;;;12.78;58.90
60061;BME280;45933;51.336;12.612;2023-05-07T06:33:06;100439.69;;;12.85;58.59
60061;BME280;45933;51.336;12.612;2023-05-07T06:35:32;100446.56;;;12.92;58.98
60061;BME280;45933;51.336;12.612;2023-05-07T06:37:57;100444.81;;;12.95;58.76
60061;BME280;45933;51.336;12.612;2023-05-07T06:40:22;100442.16;;;13.00;58.10
60061;BME280;45933;51.336;12.612;2023-05-07T06:42:48;100442.09;;;13.06;57.59
60061;BME280;45933;51.336;12.612;2023-05-07T06:45:13;100450.72;;;13.13;58.07
60061;BME280;45933;51.336;12.612;2023-05-07T06:47:38;100452.44;;;13.21;58.13
60061;BME280;45933;51.336;12.612;2023-05-07T06:50:04;100447.16;;;13.26;57.73
60061;BME280;45933;51.336;12.612;2023-05-07T06:52:29;100451.50;;;13.27;57.20
60061;BME280;45933;51.336;12.612;2023-05-07T06:54:55;100456.69;;;13.31;56.74
60061;BME280;45933;51.336;12.612;2023-05-07T06:57:20;100451.38;;;13.38;56.33
60061;BME280;45933;51.336;12.612;2023-05-07T06:59:45;100455.72;;;13.42;56.61
60061;BME280;45933;51.336;12.612;2023-05-07T07:02:11;100460.13;;;13.37;56.75
60061;BME280;45933;51.336;12.612;2023-05-07T07:04:36;100467.91;;;13.43;56.30
60061;BME280;45933;51.336;12.612;2023-05-07T07:07:01;100470.56;;;13.41;56.16
60061;BME280;45933;51.336;12.612;2023-05-07T07:09:26;100465.25;;;13.44;55.99
60061;BME280;45933;51.336;12.612;2023-05-07T07:11:52;100468.78;;;13.45;55.84
60061;BME280;45933;51.336;12.612;2023-05-07T07:14:17;100464.41;;;13.44;55.77
60061;BME280;45933;51.336;12.612;2023-05-07T07:16:42;100469.56;;;13.51;56.38
60061;BME280;45933;51.336;12.612;2023-05-07T07:19:07;100466.91;;;13.56;55.87
60061;BME280;45933;51.336;12.612;2023-05-07T07:21:33;100472.13;;;13.56;55.53
60061;BME280;45933;51.336;12.612;2023-05-07T07:23:58;100478.25;;;13.56;55.27
60061;BME280;45933;51.336;12.612;2023-05-07T07:26:23;100474.78;;;13.53;55.07
60061;BME280;45933;51.336;12.612;2023-05-07T07:28:49;100468.59;;;13.58;55.51
60061;BME280;45933;51.336;12.612;2023-05-07T07:31:14;100468.63;;;13.57;55.24
60061;BME280;45933;51.336;12.612;2023-05-07T07:33:40;100465.97;;;13.58;54.96
60061;BME280;45933;51.336;12.612;2023-05-07T07:36:06;100473.03;;;13.53;54.61
60061;BME280;45933;51.336;12.612;2023-05-07T07:38:32;100460.84;;;13.51;54.76
60061;BME280;45933;51.336;12.612;2023-05-07T07:40:57;100463.47;;;13.48;54.25
60061;BME280;45933;51.336;12.612;2023-05-07T07:43:23;100466.06;;;13.49;54.81
60061;BME280;45933;51.336;12.612;2023-05-07T07:45:48;100465.25;;;13.47;54.89
60061;BME280;45933;51.336;12.612;2023-05-07T07:48:13;100458.22;;;13.49;54.98
60061;BME280;45933;51.336;12.612;2023-05-07T07:50:39;100466.91;;;13.53;54.77
60061;BME280;45933;51.336;12.612;2023-05-07T07:53:04;100464.31;;;13.53;54.44
60061;BME280;45933;51.336;12.612;2023-05-07T07:55:29;100466.13;;;13.46;54.03
60061;BME280;45933;51.336;12.612;2023-05-07T07:57:56;100471.31;;;13.51;54.17
60061;BME280;45933;51.336;12.612;2023-05-07T08:00:21;100471.38;;;13.46;54.42
60061;BME280;45933;51.336;12.612;2023-05-07T08:02:46;100474.78;;;13.53;54.78
60061;BME280;45933;51.336;12.612;2023-05-07T08:05:12;100479.25;;;13.45;54.36
60061;BME280;45933;51.336;12.612;2023-05-07T08:07:37;100495.81;;;13.44;53.96
60061;BME280;45933;51.336;12.612;2023-05-07T08:10:02;100494.91;;;13.48;54.28
60061;BME280;45933;51.336;12.612;2023-05-07T08:12:28;100493.31;;;13.36;54.42
60061;BME280;45933;51.336;12.612;2023-05-07T08:14:54;100501.06;;;13.45;53.76
60061;BME280;45933;51.336;12.612;2023-05-07T08:17:19;100488.91;;;13.40;54.22
60061;BME280;45933;51.336;12.612;2023-05-07T08:19:47;100493.25;;;13.41;54.32
60061;BME280;45933;51.336;12.612;2023-05-07T08:22:12;100493.31;;;13.34;53.96
60061;BME280;45933;51.336;12.612;2023-05-07T08:24:38;100494.19;;;13.35;54.32
60061;BME280;45933;51.336;12.612;2023-05-07T08:27:03;100495.13;;;13.29;54.51
60061;BME280;45933;51.336;12.612;2023-05-07T08:29:28;100503.03;;;13.25;54.36
60061;BME280;45933;51.336;12.612;2023-05-07T08:31:53;100501.25;;;13.25;54.70
60061;BME280;45933;51.336;12.612;2023-05-07T08:34:19;100496.88;;;13.27;54.51
60061;BME280;45933;51.336;12.612;2023-05-07T08:36:44;100500.34;;;13.29;54.54
60061;BME280;45933;51.336;12.612;2023-05-07T08:39:12;100501.25;;;13.27;54.56
60061;BME280;45933;51.336;12.612;2023-05-07T08:41:37;100506.41;;;13.36;54.08
60061;BME280;45933;51.336;12.612;2023-05-07T08:44:03;100509.03;;;13.34;54.02
60061;BME280;45933;51.336;12.612;2023-05-07T08:46:32;100512.56;;;13.30;54.27
60061;BME280;45933;51.336;12.612;2023-05-07T08:48:57;100510.78;;;13.34;54.23
60061;BME280;45933;51.336;12.612;2023-05-07T08:51:23;100516.94;;;13.28;54.08
60061;BME280;45933;51.336;12.612;2023-05-07T08:53:49;100520.34;;;13.37;54.45
60061;BME280;45933;51.336;12.612;2023-05-07T08:56:15;100519.53;;;13.30;54.26
60061;BME280;45933;51.336;12.612;2023-05-07T08:58:42;100525.59;;;13.33;54.52
60061;BME280;45933;51.336;12.612;2023-05-07T09:01:14;100518.63;;;13.36;54.43
60061;BME280;45933;51.336;12.612;2023-05-07T09:03:41;100522.94;;;13.38;54.15
60061;BME280;45933;51.336;12.612;2023-05-07T09:06:09;100523.88;;;13.34;53.84
60061;BME280;45933;51.336;12.612;2023-05-07T09:08:35;100533.44;;;13.40;53.70
60061;BME280;45933;51.336;12.612;2023-05-07T09:11:01;100523.88;;;13.34;53.95
60061;BME280;45933;51.336;12.612;2023-05-07T09:13:27;100521.16;;;13.43;54.17
60061;BME280;45933;51.336;12.612;2023-05-07T09:15:52;100517.72;;;13.37;54.17
60061;BME280;45933;51.336;12.612;2023-05-07T09:18:18;100524.66;;;13.42;53.97
60061;BME280;45933;51.336;12.612;2023-05-07T09:20:43;100522.00;;;13.45;54.07
60061;BME280;45933;51.336;12.612;2023-05-07T09:23:09;100527.28;;;13.41;54.27
60061;BME280;45933;51.336;12.612;2023-05-07T09:25:35;100533.34;;;13.47;54.69
60061;BME280;45933;51.336;12.612;2023-05-07T09:28:02;100532.50;;;13.45;54.25
60061;BME280;45933;51.336;12.612;2023-05-07T09:30:29;100532.44;;;13.48;54.40
60061;BME280;45933;51.336;12.612;2023-05-07T09:32:55;100528.06;;;13.50;54.00
60061;BME280;45933;51.336;12.612;2023-05-07T09:35:20;100534.13;;;13.55;54.26
60061;BME280;45933;51.336;12.612;2023-05-07T09:37:58;100532.28;;;13.64;53.92
60061;BME280;45933;51.336;12.612;2023-05-07T09:40:26;100536.66;;;13.63;54.02
60061;BME280;45933;51.336;12.612;2023-05-07T09:42:52;100535.75;;;13.67;54.24
60061;BME280;45933;51.336;12.612;2023-05-07T09:45:36;100539.09;;;13.81;54.04
60061;BME280;45933;51.336;12.612;2023-05-07T09:48:04;100537.38;;;13.77;53.57
60061;BME280;45933;51.336;12.612;2023-05-07T09:50:35;100534.69;;;13.83;54.03
60061;BME280;45933;51.336;12.612;2023-05-07T09:53:03;100539.13;;;13.77;53.85
60061;BME280;45933;51.336;12.612;2023-05-07T09:55:28;100546.91;;;13.84;53.75
60061;BME280;45933;51.336;12.612;2023-05-07T09:57:57;100544.25;;;13.86;53.66
60061;BME280;45933;51.336;12.612;2023-05-07T10:00:22;100538.16;;;13.87;53.70
60061;BME280;45933;51.336;12.612;2023-05-07T10:02:49;100535.50;;;13.89;53.62
60061;BME280;45933;51.336;12.612;2023-05-07T10:05:18;100539.81;;;13.93;53.58
60061;BME280;45933;51.336;12.612;2023-05-07T10:07:44;100539.81;;;13.93;53.55
60061;BME280;45933;51.336;12.612;2023-05-07T10:10:10;100537.06;;;14.02;53.87
60061;BME280;45933;51.336;12.612;2023-05-07T10:12:35;100538.81;;;14.03;54.21
60061;BME280;45933;51.336;12.612;2023-05-07T10:15:11;100529.94;;;14.13;53.71
60061;BME280;45933;51.336;12.612;2023-05-07T10:17:38;100531.66;;;14.16;53.42
60061;BME280;45933;51.336;12.612;2023-05-07T10:20:05;100537.81;;;14.15;52.97
60061;BME280;45933;51.336;12.612;2023-05-07T10:22:37;100535.13;;;14.19;53.13
60061;BME280;45933;51.336;12.612;2023-05-07T10:25:16;100533.25;;;14.27;53.41
60061;BME280;45933;51.336;12.612;2023-05-07T10:27:43;100542.88;;;14.27;53.60
60061;BME280;45933;51.336;12.612;2023-05-07T10:33:03;100548.94;;;14.30;53.60
60061;BME280;45933;51.336;12.612;2023-05-07T10:35:37;100550.72;;;14.28;53.04
60061;BME280;45933;51.336;12.612;2023-05-07T10:38:04;100544.66;;;14.25;53.57
60061;BME280;45933;51.336;12.612;2023-05-07T10:40:30;100542.84;;;14.28;53.91
60061;BME280;45933;51.336;12.612;2023-05-07T10:43:02;100551.50;;;14.36;53.54
60061;BME280;45933;51.336;12.612;2023-05-07T10:45:30;100552.34;;;14.37;53.22
60061;BME280;45933;51.336;12.612;2023-05-07T10:48:15;100547.84;;;14.48;53.33
60061;BME280;45933;51.336;12.612;2023-05-07T10:50:44;100542.69;;;14.41;53.09
60061;BME280;45933;51.336;12.612;2023-05-07T10:55:46;100538.25;;;14.46;52.88
60061;BME280;45933;51.336;12.612;2023-05-07T11:00:46;100543.47;;;14.50;52.11
60061;BME280;45933;51.336;12.612;2023-05-07T11:03:11;100544.38;;;14.48;52.57
60061;BME280;45933;51.336;12.612;2023-05-07T11:05:37;100553.09;;;14.47;52.33
60061;BME280;45933;51.336;12.612;2023-05-07T11:08:03;100548.72;;;14.49;52.72
60061;BME280;45933;51.336;12.612;2023-05-07T11:10:54;100542.41;;;14.62;53.01
60061;BME280;45933;51.336;12.612;2023-05-07T11:13:43;100531.78;;;14.70;53.01
60061;BME280;45933;51.336;12.612;2023-05-07T11:16:23;100541.28;;;14.78;53.23
60061;BME280;45933;51.336;12.612;2023-05-07T11:18:50;100524.69;;;14.78;52.54
60061;BME280;45933;51.336;12.612;2023-05-07T11:21:34;100536.56;;;15.00;52.02
60061;BME280;45933;51.336;12.612;2023-05-07T11:24:01;100537.50;;;14.96;51.59
60061;BME280;45933;51.336;12.612;2023-05-07T11:26:31;100542.69;;;15.01;51.79
60061;BME280;45933;51.336;12.612;2023-05-07T11:29:10;100538.19;;;15.09;51.28
60061;BME280;45933;51.336;12.612;2023-05-07T11:31:36;100537.34;;;15.05;51.26
60061;BME280;45933;51.336;12.612;2023-05-07T11:34:02;100538.28;;;15.03;52.07
60061;BME280;45933;51.336;12.612;2023-05-07T11:36:32;100541.66;;;15.08;51.08
60061;BME280;45933;51.336;12.612;2023-05-07T11:38:57;100544.16;;;15.17;51.29
60061;BME280;45933;51.336;12.612;2023-05-07T11:41:33;100544.03;;;15.25;50.81
60061;BME280;45933;51.336;12.612;2023-05-07T11:43:59;100550.38;;;15.11;50.55
60061;BME280;45933;51.336;12.612;2023-05-07T11:46:25;100552.13;;;15.11;50.53
60061;BME280;45933;51.336;12.612;2023-05-07T11:48:50;100548.66;;;15.10;51.05
60061;BME280;45933;51.336;12.612;2023-05-07T11:54:37;100544.81;;;15.28;50.75
60061;BME280;45933;51.336;12.612;2023-05-07T11:57:06;100549.22;;;15.28;51.03
60061;BME280;45933;51.336;12.612;2023-05-07T11:59:42;100548.25;;;15.33;50.30
60061;BME280;45933;51.336;12.612;2023-05-07T12:04:52;100546.31;;;15.43;49.61
60061;BME280;45933;51.336;12.612;2023-05-07T12:07:17;100538.28;;;15.52;50.28
60061;BME280;45933;51.336;12.612;2023-05-07T12:09:45;100552.25;;;15.54;49.64
60061;BME280;45933;51.336;12.612;2023-05-07T12:12:12;100549.63;;;15.54;49.67
60061;BME280;45933;51.336;12.612;2023-05-07T12:14:41;100547.78;;;15.59;49.82
60061;BME280;45933;51.336;12.612;2023-05-07T12:17:08;100549.47;;;15.63;49.58
60061;BME280;45933;51.336;12.612;2023-05-07T12:19:35;100548.47;;;15.71;50.25
60061;BME280;45933;51.336;12.612;2023-05-07T12:22:02;100557.97;;;15.76;51.38
60061;BME280;45933;51.336;12.612;2023-05-07T12:24:28;100548.28;;;15.80;50.07
60061;BME280;45933;51.336;12.612;2023-05-07T12:26:53;100551.75;;;15.83;49.36
60061;BME280;45933;51.336;12.612;2023-05-07T12:29:22;100541.97;;;15.90;48.69
60061;BME280;45933;51.336;12.612;2023-05-07T12:31:49;100541.06;;;15.91;47.93
60061;BME280;45933;51.336;12.612;2023-05-07T12:34:15;100535.66;;;15.99;48.58
60061;BME280;45933;51.336;12.612;2023-05-07T12:36:40;100532.03;;;16.03;48.69
60061;BME280;45933;51.336;12.612;2023-05-07T12:39:08;100528.31;;;16.14;48.17
60061;BME280;45933;51.336;12.612;2023-05-07T12:41:54;100536.97;;;16.19;47.62
60061;BME280;45933;51.336;12.612;2023-05-07T12:44:24;100529.63;;;16.35;47.33
60061;BME280;45933;51.336;12.612;2023-05-07T12:46:49;100527.91;;;16.33;47.28
60061;BME280;45933;51.336;12.612;2023-05-07T12:49:15;100522.34;;;16.45;46.22
60061;BME280;45933;51.336;12.612;2023-05-07T12:51:41;100522.00;;;16.62;47.17